Time,TemperatureF,DewpointF,PressureIn,WindDirection,WindDirectionDegrees,WindSpeedMPH,WindSpeedGustMPH,Humidity,HourlyPrecipIn,Conditions,Clouds,dailyrainin,SoftwareType,DateUTC
2013-09-10 00:14:00,71.6,70.1,29.99,ESE,112,0.0,-999.0,95,-99.99,,,0.00,Acu-Link.com,2013-09-10 04:14:00,
2013-09-10 00:29:00,71.6,70.1,29.99,ESE,112,2.0,-999.0,95,-99.99,,,0.00,Acu-Link.com,2013-09-10 04:29:00,
2013-09-10 00:44:00,71.6,70.1,29.99,ESE,112,1.6,-999.0,95,-99.99,,,0.00,Acu-Link.com,2013-09-10 04:44:00,
2013-09-10 00:59:00,71.6,70.1,29.99,SSW,202,0.0,-999.0,95,-99.99,,,0.00,Acu-Link.com,2013-09-10 04:59:00,
2013-09-10 01:14:00,71.6,70.1,29.99,SSE,157,0.0,-999.0,95,-99.99,,,0.00,Acu-Link.com,2013-09-10 05:14:00,
2013-09-10 01:30:00,71.6,69.1,29.99,ESE,112,1.6,-999.0,92,-99.99,,,0.00,Acu-Link.com,2013-09-10 05:30:00,
2013-09-10 01:45:00,73.4,70.0,29.99,WSW,247,0.0,-999.0,89,-99.99,,,0.00,Acu-Link.com,2013-09-10 05:45:00,
2013-09-10 02:00:00,73.4,69.3,29.99,ESE,112,2.0,-999.0,87,-99.99,,,0.00,Acu-Link.com,2013-09-10 06:00:00,
2013-09-10 02:15:00,75.2,70.4,29.99,South,180,2.7,-999.0,85,-99.99,,,0.00,Acu-Link.com,2013-09-10 06:15:00,
2013-09-10 02:30:00,75.2,70.4,29.99,SSW,202,0.0,-999.0,85,-99.99,,,0.00,Acu-Link.com,2013-09-10 06:30:00,
2013-09-10 02:45:00,75.2,70.0,29.98,West,270,1.1,-999.0,84,-99.99,,,0.00,Acu-Link.com,2013-09-10 06:45:00,
2013-09-10 03:00:00,77.0,71.1,29.99,NNE,22,3.6,-999.0,82,-99.99,,,0.00,Acu-Link.com,2013-09-10 07:00:00,
2013-09-10 03:16:00,77.0,71.1,29.99,SW,225,2.7,-999.0,82,-99.99,,,0.00,Acu-Link.com,2013-09-10 07:16:00,
2013-09-10 03:31:00,75.2,69.7,29.98,WSW,247,2.0,-999.0,83,-99.99,,,0.00,Acu-Link.com,2013-09-10 07:31:00,
2013-09-10 03:46:00,75.2,70.0,29.99,NE,45,0.0,-999.0,84,-99.99,,,0.00,Acu-Link.com,2013-09-10 07:46:00,
2013-09-10 04:01:00,73.4,68.6,29.99,SE,135,3.1,-999.0,85,-99.99,,,0.00,Acu-Link.com,2013-09-10 08:01:00,
2013-09-10 04:18:00,73.4,68.6,30.00,SW,225,2.7,-999.0,85,-99.99,,,0.00,Acu-Link.com,2013-09-10 08:18:00,
2013-09-10 04:33:00,73.4,68.6,30.00,West,270,2.7,-999.0,85,-99.99,,,0.00,Acu-Link.com,2013-09-10 08:33:00,
2013-09-10 04:48:00,73.4,68.9,30.00,SSW,202,0.0,-999.0,86,-99.99,,,0.00,Acu-Link.com,2013-09-10 08:48:00,
2013-09-10 05:04:00,73.4,69.3,30.00,SW,225,0.0,-999.0,87,-99.99,,,0.00,Acu-Link.com,2013-09-10 09:04:00,
2013-09-10 05:19:00,73.4,69.3,30.01,SE,135,2.7,-999.0,87,-99.99,,,0.00,Acu-Link.com,2013-09-10 09:19:00,
2013-09-10 05:34:00,73.4,70.0,30.01,NE,45,0.0,-999.0,89,-99.99,,,0.00,Acu-Link.com,2013-09-10 09:34:00,
2013-09-10 05:49:00,71.6,68.5,30.02,SE,135,1.1,-999.0,90,-99.99,,,0.00,Acu-Link.com,2013-09-10 09:49:00,
2013-09-10 06:04:00,71.6,68.8,30.02,East,90,0.0,-999.0,91,-99.99,,,0.00,Acu-Link.com,2013-09-10 10:04:00,
2013-09-10 06:19:00,71.6,69.1,30.02,ENE,67,1.6,-999.0,92,-99.99,,,0.00,Acu-Link.com,2013-09-10 10:19:00,
2013-09-10 06:34:00,71.6,69.1,30.02,WNW,292,1.6,-999.0,92,-99.99,,,0.00,Acu-Link.com,2013-09-10 10:34:00,
2013-09-10 06:49:00,71.6,69.1,30.02,NE,45,0.0,-999.0,92,-99.99,,,0.00,Acu-Link.com,2013-09-10 10:49:00,
2013-09-10 07:05:00,71.6,69.1,30.03,SE,135,2.7,-999.0,92,-99.99,,,0.00,Acu-Link.com,2013-09-10 11:05:00,
2013-09-10 07:35:00,71.6,69.5,30.04,WNW,292,2.0,-999.0,93,-99.99,,,0.00,Acu-Link.com,2013-09-10 11:35:00,
2013-09-10 07:50:00,71.6,69.5,30.04,East,90,1.6,-999.0,93,-99.99,,,0.00,Acu-Link.com,2013-09-10 11:50:00,
2013-09-10 08:06:00,73.4,71.2,30.04,NE,45,0.0,-999.0,93,-99.99,,,0.00,Acu-Link.com,2013-09-10 12:06:00,
2013-09-10 08:21:00,73.4,70.9,30.04,South,180,2.7,-999.0,92,-99.99,,,0.00,Acu-Link.com,2013-09-10 12:21:00,
2013-09-10 08:36:00,73.4,70.6,30.04,SW,225,2.0,-999.0,91,-99.99,,,0.00,Acu-Link.com,2013-09-10 12:36:00,
2013-09-10 08:51:00,75.2,72.1,30.03,ESE,112,1.1,-999.0,90,-99.99,,,0.00,Acu-Link.com,2013-09-10 12:51:00,
2013-09-10 09:07:00,77.0,73.2,30.04,SSE,157,3.1,-999.0,88,-99.99,,,0.00,Acu-Link.com,2013-09-10 13:07:00,
2013-09-10 09:22:00,77.0,72.8,30.04,East,90,2.0,-999.0,87,-99.99,,,0.00,Acu-Link.com,2013-09-10 13:22:00,
2013-09-10 09:37:00,80.6,74.9,30.04,ESE,112,3.6,-999.0,83,-99.99,,,0.00,Acu-Link.com,2013-09-10 13:37:00,
2013-09-10 09:53:00,80.6,73.8,30.05,NW,315,3.6,-999.0,80,-99.99,,,0.00,Acu-Link.com,2013-09-10 13:53:00,
2013-09-10 10:08:00,82.4,75.2,30.05,West,270,1.6,-999.0,79,-99.99,,,0.00,Acu-Link.com,2013-09-10 14:08:00,
2013-09-10 10:23:00,84.2,75.8,30.05,ENE,67,2.0,-999.0,76,-99.99,,,0.00,Acu-Link.com,2013-09-10 14:23:00,
2013-09-10 10:39:00,86.0,77.1,30.05,SE,135,2.7,-999.0,75,-99.99,,,0.00,Acu-Link.com,2013-09-10 14:39:00,
2013-09-10 10:54:00,86.0,76.3,30.05,South,180,3.6,-999.0,73,-99.99,,,0.00,Acu-Link.com,2013-09-10 14:54:00,
2013-09-10 11:09:00,87.8,76.8,30.05,SE,135,1.1,-999.0,70,-99.99,,,0.00,Acu-Link.com,2013-09-10 15:09:00,
2013-09-10 11:24:00,87.8,76.3,30.05,SW,225,2.7,-999.0,69,-99.99,,,0.00,Acu-Link.com,2013-09-10 15:24:00,
2013-09-10 11:40:00,89.6,77.6,30.05,West,270,1.6,-999.0,68,-99.99,,,0.15,Acu-Link.com,2013-09-10 15:40:00,
2013-09-10 11:55:00,89.6,77.2,30.05,East,90,3.6,-999.0,67,-99.99,,,0.15,Acu-Link.com,2013-09-10 15:55:00,
2013-09-10 12:10:00,89.6,75.3,30.05,SSE,157,4.0,-999.0,63,-99.99,,,0.15,Acu-Link.com,2013-09-10 16:10:00,
2013-09-10 12:25:00,91.4,76.0,30.05,ESE,112,3.1,-999.0,61,-99.99,,,0.15,Acu-Link.com,2013-09-10 16:25:00,
2013-09-10 12:40:00,91.4,76.0,30.05,WNW,292,2.7,-999.0,61,-99.99,,,0.15,Acu-Link.com,2013-09-10 16:40:00,
2013-09-10 12:55:00,93.2,76.2,30.05,ESE,112,5.1,-999.0,58,-99.99,,,0.15,Acu-Link.com,2013-09-10 16:55:00,
2013-09-10 13:11:00,93.2,76.2,30.05,SSW,202,2.0,-999.0,58,-99.99,,,0.15,Acu-Link.com,2013-09-10 17:11:00,
2013-09-10 13:26:00,95.0,75.1,30.05,SW,225,4.7,-999.0,53,-99.99,,,0.15,Acu-Link.com,2013-09-10 17:26:00,
2013-09-10 13:41:00,93.2,75.1,30.04,South,180,1.1,-999.0,56,-99.99,,,0.15,Acu-Link.com,2013-09-10 17:41:00,
2013-09-10 13:56:00,95.0,74.6,30.05,SW,225,3.6,-999.0,52,-99.99,,,0.15,Acu-Link.com,2013-09-10 17:56:00,
2013-09-10 14:12:00,95.0,74.0,30.04,WNW,292,7.2,-999.0,51,-99.99,,,0.15,Acu-Link.com,2013-09-10 18:12:00,
2013-09-10 14:27:00,95.0,74.6,30.04,WNW,292,1.6,-999.0,52,-99.99,,,0.15,Acu-Link.com,2013-09-10 18:27:00,
2013-09-10 14:42:00,96.8,73.2,30.04,NE,45,2.7,-999.0,47,-99.99,,,0.15,Acu-Link.com,2013-09-10 18:42:00,
2013-09-10 14:58:00,95.0,74.0,30.04,West,270,4.0,-999.0,51,-99.99,,,0.15,Acu-Link.com,2013-09-10 18:58:00,
2013-09-10 15:13:00,96.8,73.8,30.04,WSW,247,2.7,-999.0,48,-99.99,,,0.15,Acu-Link.com,2013-09-10 19:13:00,
2013-09-10 15:28:00,95.0,72.8,30.03,WSW,247,1.6,-999.0,49,-99.99,,,0.15,Acu-Link.com,2013-09-10 19:28:00,
2013-09-10 15:43:00,96.8,75.0,30.03,NNW,337,2.7,-999.0,50,-99.99,,,0.15,Acu-Link.com,2013-09-10 19:43:00,
2013-09-10 15:58:00,96.8,74.4,30.02,NW,315,3.6,-999.0,49,-99.99,,,0.15,Acu-Link.com,2013-09-10 19:58:00,
2013-09-10 16:13:00,95.0,72.8,30.02,SE,135,7.2,-999.0,49,-99.99,,,0.15,Acu-Link.com,2013-09-10 20:13:00,
2013-09-10 16:28:00,95.0,73.4,30.02,SE,135,2.0,-999.0,50,-99.99,,,0.15,Acu-Link.com,2013-09-10 20:28:00,
2013-09-10 16:43:00,95.0,75.1,30.01,NNW,337,2.7,-999.0,53,-99.99,,,0.15,Acu-Link.com,2013-09-10 20:43:00,
2013-09-10 16:59:00,95.0,75.1,30.02,SSW,202,1.6,-999.0,53,-99.99,,,0.15,Acu-Link.com,2013-09-10 20:59:00,
2013-09-10 17:14:00,93.2,73.5,30.02,SSW,202,3.1,-999.0,53,-99.99,,,0.15,Acu-Link.com,2013-09-10 21:14:00,
2013-09-10 17:29:00,93.2,74.0,30.01,ESE,112,1.6,-999.0,54,-99.99,,,0.15,Acu-Link.com,2013-09-10 21:29:00,
2013-09-10 17:44:00,91.4,72.9,30.01,ESE,112,2.0,-999.0,55,-99.99,,,0.15,Acu-Link.com,2013-09-10 21:44:00,
2013-09-10 17:59:00,91.4,72.9,30.01,West,270,2.7,-999.0,55,-99.99,,,0.15,Acu-Link.com,2013-09-10 21:59:00,
2013-09-10 18:15:00,91.4,73.5,30.01,East,90,1.1,-999.0,56,-99.99,,,0.15,Acu-Link.com,2013-09-10 22:15:00,
2013-09-10 18:30:00,89.6,73.3,30.01,ESE,112,0.0,-999.0,59,-99.99,,,0.15,Acu-Link.com,2013-09-10 22:30:00,
2013-09-10 18:45:00,87.8,74.5,30.02,North,0,2.7,-999.0,65,-99.99,,,0.15,Acu-Link.com,2013-09-10 22:45:00,
2013-09-10 19:01:00,87.8,75.4,30.02,East,90,0.0,-999.0,67,-99.99,,,0.15,Acu-Link.com,2013-09-10 23:01:00,
2013-09-10 19:16:00,86.0,74.6,30.02,ENE,67,0.0,-999.0,69,-99.99,,,0.15,Acu-Link.com,2013-09-10 23:16:00,
2013-09-10 19:31:00,84.2,74.2,30.02,SE,135,0.0,-999.0,72,-99.99,,,0.15,Acu-Link.com,2013-09-10 23:31:00,
2013-09-10 19:46:00,82.4,73.7,30.03,NE,45,0.0,-999.0,75,-99.99,,,0.15,Acu-Link.com,2013-09-10 23:46:00,
2013-09-10 20:01:00,82.4,74.4,30.04,ESE,112,1.1,-999.0,77,-99.99,,,0.15,Acu-Link.com,2013-09-11 00:01:00,
2013-09-10 20:16:00,80.6,73.1,30.05,SE,135,0.0,-999.0,78,-99.99,,,0.15,Acu-Link.com,2013-09-11 00:16:00,
2013-09-10 20:32:00,80.6,73.8,30.05,East,90,1.6,-999.0,80,-99.99,,,0.15,Acu-Link.com,2013-09-11 00:32:00,
2013-09-10 20:47:00,80.6,74.2,30.06,South,180,1.1,-999.0,81,-99.99,,,0.15,Acu-Link.com,2013-09-11 00:47:00,
2013-09-10 21:02:00,80.6,74.9,30.06,NE,45,0.0,-999.0,83,-99.99,,,0.15,Acu-Link.com,2013-09-11 01:02:00,
2013-09-10 21:17:00,80.6,74.6,30.07,SE,135,2.0,-999.0,82,-99.99,,,0.15,Acu-Link.com,2013-09-11 01:17:00,
2013-09-10 21:33:00,80.6,74.6,30.07,SE,135,1.6,-999.0,82,-99.99,,,0.15,Acu-Link.com,2013-09-11 01:33:00,
2013-09-10 21:48:00,80.6,74.9,30.07,ENE,67,3.1,-999.0,83,-99.99,,,0.15,Acu-Link.com,2013-09-11 01:48:00,
2013-09-10 22:03:00,80.6,74.6,30.08,ESE,112,0.0,-999.0,82,-99.99,,,0.15,Acu-Link.com,2013-09-11 02:03:00,
2013-09-10 22:18:00,80.6,74.6,30.08,NE,45,4.0,-999.0,82,-99.99,,,0.15,Acu-Link.com,2013-09-11 02:18:00,
2013-09-10 22:33:00,80.6,73.8,30.08,ESE,112,2.0,-999.0,80,-99.99,,,0.15,Acu-Link.com,2013-09-11 02:33:00,
2013-09-10 22:49:00,80.6,73.8,30.09,WNW,292,2.0,-999.0,80,-99.99,,,0.15,Acu-Link.com,2013-09-11 02:49:00,
2013-09-10 23:04:00,80.6,74.2,30.08,South,180,2.7,-999.0,81,-99.99,,,0.15,Acu-Link.com,2013-09-11 03:04:00,
2013-09-10 23:19:00,80.6,74.2,30.09,SSW,202,1.6,-999.0,81,-99.99,,,0.15,Acu-Link.com,2013-09-11 03:19:00,
2013-09-10 23:34:00,80.6,74.6,30.09,North,0,0.0,-999.0,82,-99.99,,,0.15,Acu-Link.com,2013-09-11 03:34:00,
2013-09-10 23:49:00,78.8,73.2,30.08,South,180,0.0,-999.0,83,-99.99,,,0.15,Acu-Link.com,2013-09-11 03:49:00,